Time;durP1;ratioP1;P1;durP2;ratioP2;P2;SDS_P1;SDS_P2;PMS_P1;PMS_P2;Temp;Humidity;BMP_temperature;BMP_pressure;BME280_temperature;BME280_humidity;BME280_pressure;Samples;Min_cycle;Max_cycle;Signal;HPM_P1;HPM_P2
2022/03/28 00:04:26;;;;;;;;;;;;;;;11.36;38.55;98779.94;12692597;23;19921;-81
2022/03/28 00:09:47;;;;;;;;;;;;;;;11.25;38.73;98777.66;12683591;23;19980;-80
2022/03/28 00:15:09;;;;;;;;;;;;;;;11.13;39.04;98775.34;12643297;23;19920;-80
2022/03/28 00:20:29;;;;;;;;;;;;;;;11.07;39.18;98769.25;12666826;23;19924;-80
2022/03/28 00:25:50;;;;;;;;;;;;;;;11.00;39.16;98767.28;12666198;23;19921;-80
2022/03/28 00:31:11;;;;;;;;;;;;;;;10.97;39.47;98760.03;12667850;23;19952;-79
2022/03/28 00:36:33;;;;;;;;;;;;;;;10.97;38.86;98765.63;12643730;23;21225;-79
2022/03/28 00:41:54;;;;;;;;;;;;;;;10.91;39.41;98762.34;12686383;23;19928;-79
2022/03/28 00:47:15;;;;;;;;;;;;;;;10.86;39.77;98757.75;12644709;23;20340;-80
2022/03/28 00:52:37;;;;;;;;;;;;;;;10.80;39.46;98752.38;12665231;23;19921;-80
2022/03/28 00:57:57;;;;;;;;;;;;;;;10.68;39.78;98736.69;12644764;23;20250;-80
2022/03/28 01:03:18;;;;;;;;;;;;;;;10.63;40.18;98743.25;12697576;23;19921;-79
2022/03/28 01:08:39;;;;;;;;;;;;;;;10.48;40.03;98739.28;12665013;23;20288;-80
2022/03/28 01:14:00;;;;;;;;;;;;;;;10.42;40.30;98738.00;12645203;23;19928;-80
2022/03/28 01:19:21;;;;;;;;;;;;;;;10.33;40.33;98739.41;12663560;23;19928;-79
2022/03/28 01:24:42;;;;;;;;;;;;;;;10.32;40.66;98727.47;12683368;23;19984;-79
2022/03/28 01:30:04;;;;;;;;;;;;;;;10.36;40.73;98720.78;12669206;23;19921;-80
2022/03/28 01:35:25;;;;;;;;;;;;;;;10.31;40.92;98717.63;12663376;23;19927;-80
2022/03/28 01:40:50;;;;;;;;;;;;;;;10.15;40.94;98707.88;12661833;23;19921;-80
2022/03/28 01:46:10;;;;;;;;;;;;;;;10.07;41.47;98707.19;12660969;23;20240;-80
2022/03/28 01:51:31;;;;;;;;;;;;;;;10.03;41.08;98699.22;12661760;23;19930;-79
2022/03/28 01:56:52;;;;;;;;;;;;;;;10.01;41.09;98696.25;12661907;23;19925;-80
2022/03/28 02:02:13;;;;;;;;;;;;;;;9.95;41.40;98690.19;12657445;23;20379;-79
2022/03/28 02:07:33;;;;;;;;;;;;;;;9.95;41.67;98679.03;12660663;23;19921;-80
2022/03/28 02:12:54;;;;;;;;;;;;;;;9.89;41.97;98683.34;12661333;23;19921;-79
2022/03/28 02:18:15;;;;;;;;;;;;;;;9.81;41.58;98672.22;12661115;23;19921;-79
2022/03/28 02:23:36;;;;;;;;;;;;;;;9.78;41.74;98673.38;12681312;23;19943;-79
2022/03/28 02:28:56;;;;;;;;;;;;;;;9.71;42.12;98665.78;12652805;23;19921;-80
2022/03/28 02:34:17;;;;;;;;;;;;;;;9.63;42.35;98670.66;12662290;23;19925;-80
2022/03/28 02:39:37;;;;;;;;;;;;;;;9.55;42.28;98653.97;12660971;23;19928;-80
2022/03/28 02:44:58;;;;;;;;;;;;;;;9.46;42.05;98655.34;12641648;23;19928;-80
2022/03/28 02:50:19;;;;;;;;;;;;;;;9.39;42.23;98649.81;12704201;23;19925;-80
2022/03/28 02:55:39;;;;;;;;;;;;;;;9.31;42.68;98649.13;12661224;23;20240;-80
2022/03/28 03:01:00;;;;;;;;;;;;;;;9.32;43.10;98639.44;12687205;23;19921;-80
2022/03/28 03:06:26;;;;;;;;;;;;;;;9.31;43.13;98635.94;12684395;23;19928;-79
2022/03/28 03:11:47;;;;;;;;;;;;;;;9.31;43.28;98633.13;12662862;23;19931;-80
2022/03/28 03:17:08;;;;;;;;;;;;;;;9.28;43.25;98637.06;12662285;23;19928;-80
2022/03/28 03:22:28;;;;;;;;;;;;;;;9.25;43.14;98631.88;12641320;23;19937;-80
2022/03/28 03:27:51;;;;;;;;;;;;;;;9.17;43.68;98631.91;12657665;23;19932;-80
2022/03/28 03:33:14;;;;;;;;;;;;;;;9.21;43.95;98628.75;12681811;23;20244;-80
2022/03/28 03:38:35;;;;;;;;;;;;;;;9.31;44.47;98632.41;12640880;23;19921;-80
2022/03/28 03:43:56;;;;;;;;;;;;;;;9.31;44.33;98629.63;12660865;23;19921;-80
2022/03/28 03:49:16;;;;;;;;;;;;;;;9.27;44.79;98626.50;12660335;23;19980;-79
2022/03/28 03:54:37;;;;;;;;;;;;;;;9.16;44.38;98616.50;12684011;23;19921;-80
2022/03/28 03:59:58;;;;;;;;;;;;;;;9.09;44.41;98629.16;12705489;23;19927;-79
2022/03/28 04:05:32;;;;;;;;;;;;;;;9.05;45.01;98617.66;12685367;23;19921;-80
2022/03/28 04:10:53;;;;;;;;;;;;;;;9.01;45.09;98608.22;12684435;23;19924;-79
2022/03/28 04:16:14;;;;;;;;;;;;;;;8.97;45.18;98608.59;12684392;23;20316;-79
2022/03/28 04:21:35;;;;;;;;;;;;;;;8.86;44.90;98609.75;12663944;23;20316;-80
2022/03/28 04:26:56;;;;;;;;;;;;;;;8.66;45.89;98607.22;12663723;23;19943;-79
2022/03/28 04:32:24;;;;;;;;;;;;;;;8.76;45.97;98614.44;12685363;23;19925;-79
2022/03/28 04:37:52;;;;;;;;;;;;;;;8.76;45.96;98608.13;12641950;23;19924;-79
2022/03/28 04:43:13;;;;;;;;;;;;;;;8.79;46.03;98613.31;12658421;23;20247;-79
2022/03/28 04:48:34;;;;;;;;;;;;;;;8.80;46.67;98600.16;12658857;23;19928;-79
2022/03/28 04:53:55;;;;;;;;;;;;;;;8.81;46.61;98593.28;12679985;23;19924;-79
2022/03/28 04:59:16;;;;;;;;;;;;;;;8.81;46.82;98588.44;12657918;23;19921;-79
2022/03/28 05:04:36;;;;;;;;;;;;;;;8.91;47.18;98587.84;12647537;23;19921;-79
2022/03/28 05:09:57;;;;;;;;;;;;;;;9.04;46.95;98595.94;12662538;23;19921;-77
2022/03/28 05:15:18;;;;;;;;;;;;;;;9.26;46.68;98591.56;12687523;23;19921;-80
2022/03/28 05:20:38;;;;;;;;;;;;;;;9.61;46.75;98593.19;12667028;23;19931;-79
2022/03/28 05:25:59;;;;;;;;;;;;;;;9.95;46.60;98589.03;12691856;23;19921;-80
2022/03/28 05:31:20;;;;;;;;;;;;;;;10.42;46.14;98590.84;12676712;23;19925;-81
2022/03/28 05:36:42;;;;;;;;;;;;;;;10.87;45.45;98597.22;12710887;23;19921;-81
2022/03/28 05:42:03;;;;;;;;;;;;;;;11.48;45.24;98590.81;12692258;23;19969;-80
2022/03/28 05:47:24;;;;;;;;;;;;;;;12.26;44.66;98592.56;12709343;23;19940;-81
2022/03/28 05:52:44;;;;;;;;;;;;;;;13.33;43.78;98600.94;12676984;23;19928;-78
2022/03/28 05:58:06;;;;;;;;;;;;;;;15.08;41.44;98593.69;12684390;23;19925;-78
2022/03/28 06:03:29;;;;;;;;;;;;;;;16.31;41.33;98594.16;12658631;23;19921;-81
2022/03/28 06:08:55;;;;;;;;;;;;;;;18.22;38.96;98595.41;12660391;23;19924;-80
2022/03/28 06:14:16;;;;;;;;;;;;;;;23.17;35.28;98596.03;12636610;23;19921;-79
2022/03/28 06:19:36;;;;;;;;;;;;;;;28.49;25.82;98582.03;12636567;23;19928;-79
2022/03/28 06:24:57;;;;;;;;;;;;;;;32.35;18.18;98584.28;12677603;23;19921;-79
2022/03/28 06:30:35;;;;;;;;;;;;;;;35.03;17.84;98580.50;12661198;23;19921;-80
2022/03/28 06:35:56;;;;;;;;;;;;;;;36.99;15.11;98588.06;12637258;23;19928;-81
2022/03/28 06:41:17;;;;;;;;;;;;;;;38.36;13.70;98577.66;12637442;23;19921;-81
2022/03/28 06:46:38;;;;;;;;;;;;;;;39.73;11.44;98576.00;12657260;23;19927;-81
2022/03/28 06:51:59;;;;;;;;;;;;;;;40.89;9.91;98574.41;12657211;23;19921;-81
2022/03/28 06:57:20;;;;;;;;;;;;;;;41.52;9.50;98560.00;12656274;23;19921;-82
2022/03/28 07:02:41;;;;;;;;;;;;;;;41.74;7.83;98559.00;12671113;23;19992;-82
2022/03/28 07:08:02;;;;;;;;;;;;;;;42.93;7.15;98551.13;12636764;23;20259;-82
2022/03/28 07:13:23;;;;;;;;;;;;;;;44.03;6.57;98541.66;12656937;23;20343;-82
2022/03/28 07:18:43;;;;;;;;;;;;;;;44.88;5.82;98533.13;12655881;23;20324;-82
2022/03/28 07:24:04;;;;;;;;;;;;;;;44.97;5.41;98525.94;12636388;23;19928;-82
2022/03/28 07:29:25;;;;;;;;;;;;;;;44.94;5.09;98518.78;12644267;23;19944;-81
2022/03/28 07:34:47;;;;;;;;;;;;;;;45.02;5.41;98508.75;12676731;23;20321;-82
2022/03/28 07:40:08;;;;;;;;;;;;;;;45.77;4.94;98509.31;12636723;23;19921;-83
2022/03/28 07:45:28;;;;;;;;;;;;;;;46.23;4.41;98502.63;12616344;23;19947;-82
2022/03/28 07:50:49;;;;;;;;;;;;;;;47.32;4.54;98502.69;12635523;23;19921;-83
2022/03/28 07:56:13;;;;;;;;;;;;;;;46.95;4.13;98486.78;12617185;23;19925;-84
2022/03/28 08:01:34;;;;;;;;;;;;;;;47.65;4.45;98483.34;12655790;23;19921;-83
2022/03/28 08:06:55;;;;;;;;;;;;;;;49.15;3.76;98471.38;12636224;23;20316;-82
2022/03/28 08:12:19;;;;;;;;;;;;;;;48.93;3.39;98467.84;12655995;23;20324;-83
2022/03/28 08:17:41;;;;;;;;;;;;;;;49.94;3.23;98461.34;12655638;23;19925;-82
2022/03/28 08:23:02;;;;;;;;;;;;;;;49.92;3.17;98458.53;12616240;23;19921;-83
2022/03/28 08:28:23;;;;;;;;;;;;;;;49.43;2.75;98441.75;12670146;23;19948;-84
2022/03/28 08:33:43;;;;;;;;;;;;;;;50.30;3.09;98436.13;12656273;23;19920;-82
2022/03/28 08:39:07;;;;;;;;;;;;;;;49.98;3.16;98434.28;12657566;23;20415;-82
2022/03/28 08:44:42;;;;;;;;;;;;;;;50.49;2.84;98424.13;12639686;23;19920;-82
2022/03/28 08:50:04;;;;;;;;;;;;;;;51.30;2.47;98421.63;12638586;23;20378;-82
2022/03/28 08:55:25;;;;;;;;;;;;;;;52.02;2.18;98408.38;12639176;23;19921;-83
2022/03/28 09:01:01;;;;;;;;;;;;;;;51.10;2.96;98400.34;12641200;23;19925;-81
2022/03/28 09:06:34;;;;;;;;;;;;;;;51.38;2.67;98397.13;12639150;23;19921;-82
2022/03/28 09:12:08;;;;;;;;;;;;;;;51.85;2.47;98390.63;12661103;23;19972;-84
2022/03/28 09:17:29;;;;;;;;;;;;;;;52.58;2.88;98386.81;12639473;23;19945;-84
2022/03/28 09:22:51;;;;;;;;;;;;;;;52.30;2.56;98389.47;12594748;23;19932;-81
2022/03/28 09:28:24;;;;;;;;;;;;;;;51.44;3.29;98375.75;12614803;23;19947;-83
2022/03/28 09:34:09;;;;;;;;;;;;;;;52.03;2.66;98377.03;12645620;23;19933;-82
2022/03/28 09:39:34;;;;;;;;;;;;;;;51.53;2.91;98359.28;12658679;23;19924;-80
2022/03/28 09:45:03;;;;;;;;;;;;;;;52.26;2.61;98351.16;12659995;23;19957;-78
2022/03/28 09:50:38;;;;;;;;;;;;;;;51.75;3.19;98335.75;12639072;23;19921;-80
2022/03/28 09:56:02;;;;;;;;;;;;;;;52.69;2.83;98326.94;12638506;23;19937;-80
2022/03/28 10:01:35;;;;;;;;;;;;;;;52.68;2.52;98318.91;12699426;23;20347;-81
2022/03/28 10:07:05;;;;;;;;;;;;;;;52.31;2.61;98305.22;12639960;23;20323;-83
2022/03/28 10:12:27;;;;;;;;;;;;;;;52.08;3.01;98291.06;12637240;23;19921;-82
2022/03/28 10:18:01;;;;;;;;;;;;;;;53.26;2.68;98297.56;12638575;23;19925;-82
2022/03/28 10:23:30;;;;;;;;;;;;;;;53.76;2.53;98288.13;12617799;23;19937;-85
2022/03/28 10:35:54;;;;;;;;;;;;;;;53.05;2.78;98268.38;12661882;23;20243;-81
2022/03/28 10:41:15;;;;;;;;;;;;;;;52.69;2.79;98266.66;12657859;23;19921;-82
2022/03/28 10:46:40;;;;;;;;;;;;;;;52.97;2.75;98257.94;12617335;23;19921;-85
2022/03/28 10:52:01;;;;;;;;;;;;;;;53.16;2.30;98247.91;12636737;23;20355;-81
2022/03/28 10:57:26;;;;;;;;;;;;;;;52.89;2.21;98235.63;12637548;23;20318;-84
2022/03/28 11:02:47;;;;;;;;;;;;;;;50.91;2.97;98217.00;12637126;23;20007;-83
2022/03/28 11:08:27;;;;;;;;;;;;;;;45.03;5.07;98204.56;12634036;23;19920;-83
2022/03/28 11:13:58;;;;;;;;;;;;;;;40.38;7.77;98192.66;12654312;23;19937;-85
2022/03/28 11:19:29;;;;;;;;;;;;;;;37.42;9.57;98180.84;12629829;23;20244;-83
2022/03/28 11:24:54;;;;;;;;;;;;;;;35.69;11.54;98177.19;12673789;23;19927;-84
2022/03/28 11:30:14;;;;;;;;;;;;;;;34.66;11.50;98162.97;12614372;23;19956;-80
2022/03/28 11:35:38;;;;;;;;;;;;;;;33.44;12.93;98166.03;12673719;23;19956;-79
2022/03/28 11:40:59;;;;;;;;;;;;;;;31.84;13.83;98137.16;12633669;23;19976;-80
2022/03/28 11:46:24;;;;;;;;;;;;;;;31.20;15.10;98137.06;12652903;23;19920;-80
2022/03/28 11:51:45;;;;;;;;;;;;;;;30.91;15.22;98127.88;12653318;23;20463;-80
2022/03/28 12:02:50;;;;;;;;;;;;;;;30.56;15.95;98112.97;12636516;23;20018;-78
2022/03/28 12:08:14;;;;;;;;;;;;;;;30.63;15.24;98093.50;12633394;23;19921;-83
2022/03/28 12:13:34;;;;;;;;;;;;;;;30.11;16.01;98077.94;12654643;23;20248;-82
2022/03/28 12:18:58;;;;;;;;;;;;;;;30.20;16.43;98065.66;12637212;23;19921;-84
2022/03/28 12:24:20;;;;;;;;;;;;;;;29.92;16.82;98057.88;12637934;23;20213;-83
2022/03/28 12:29:41;;;;;;;;;;;;;;;29.43;16.45;98045.06;12647094;23;20235;-83
2022/03/28 12:35:02;;;;;;;;;;;;;;;28.91;17.36;98040.84;12639116;23;19980;-86
2022/03/28 12:40:27;;;;;;;;;;;;;;;28.68;17.94;98017.88;12639480;23;19928;-81
2022/03/28 12:45:48;;;;;;;;;;;;;;;28.58;17.97;98006.38;12638971;23;20244;-80
2022/03/28 12:51:09;;;;;;;;;;;;;;;28.01;18.81;98000.53;12659970;23;19920;-80
2022/03/28 12:56:34;;;;;;;;;;;;;;;27.90;19.87;97994.06;12638661;23;19921;-83
2022/03/28 13:02:07;;;;;;;;;;;;;;;27.58;19.85;97988.16;12676847;23;19992;-83
2022/03/28 13:07:29;;;;;;;;;;;;;;;27.57;20.41;97973.13;12658035;23;20231;-84
2022/03/28 13:12:54;;;;;;;;;;;;;;;27.14;21.10;97960.03;12618867;23;19948;-84
2022/03/28 13:18:15;;;;;;;;;;;;;;;27.65;20.50;97950.25;12678181;23;19992;-83
2022/03/28 13:23:36;;;;;;;;;;;;;;;28.48;20.23;97955.41;12617962;23;20023;-84
2022/03/28 13:29:13;;;;;;;;;;;;;;;28.29;20.28;97936.75;12637426;23;19921;-80
2022/03/28 13:34:34;;;;;;;;;;;;;;;27.80;20.51;97918.75;12658766;23;19928;-76
2022/03/28 13:39:55;;;;;;;;;;;;;;;27.38;20.88;97908.56;12658622;23;19921;-80
2022/03/28 13:45:15;;;;;;;;;;;;;;;26.72;22.31;97907.50;12657528;23;19921;-80
2022/03/28 13:50:36;;;;;;;;;;;;;;;26.52;22.39;97901.63;12657157;23;19921;-80
2022/03/28 13:56:17;;;;;;;;;;;;;;;26.72;22.63;97886.72;12625111;23;19928;-80
2022/03/28 14:01:38;;;;;;;;;;;;;;;26.79;22.31;97877.47;12637578;23;19921;-81
2022/03/28 14:06:59;;;;;;;;;;;;;;;26.66;22.61;97872.41;12658080;23;19921;-80
2022/03/28 14:12:20;;;;;;;;;;;;;;;26.51;22.48;97863.72;12657866;23;19954;-81
2022/03/28 14:17:42;;;;;;;;;;;;;;;26.28;23.13;97870.69;12677462;23;19921;-81
2022/03/28 14:23:02;;;;;;;;;;;;;;;26.21;23.27;97857.75;12636782;23;19928;-81
2022/03/28 14:28:24;;;;;;;;;;;;;;;25.96;23.40;97843.28;12617582;23;19921;-81
2022/03/28 14:33:45;;;;;;;;;;;;;;;25.68;23.39;97840.16;12698488;23;19921;-81
2022/03/28 14:39:06;;;;;;;;;;;;;;;25.76;23.65;97825.94;12656535;23;19925;-81
2022/03/28 14:44:27;;;;;;;;;;;;;;;25.85;23.29;97816.00;12657475;23;19921;-78
2022/03/28 14:49:48;;;;;;;;;;;;;;;25.77;23.30;97803.78;12637028;23;19921;-85
2022/03/28 14:55:09;;;;;;;;;;;;;;;25.55;23.07;97801.41;12676644;23;19927;-80
2022/03/28 15:00:32;;;;;;;;;;;;;;;25.38;23.04;97789.84;12637977;23;19948;-80
2022/03/28 15:05:58;;;;;;;;;;;;;;;25.18;23.51;97783.91;12639104;23;19927;-80
2022/03/28 15:11:21;;;;;;;;;;;;;;;24.68;23.59;97769.75;12618095;23;19988;-80
2022/03/28 15:16:43;;;;;;;;;;;;;;;24.31;23.75;97774.25;12635592;23;19927;-84
2022/03/28 15:22:05;;;;;;;;;;;;;;;24.27;23.90;97769.22;12656197;23;20328;-82
2022/03/28 15:27:26;;;;;;;;;;;;;;;24.57;23.91;97748.22;12696090;23;19921;-80
2022/03/28 15:32:50;;;;;;;;;;;;;;;24.99;23.68;97750.84;12657063;23;19975;-83
2022/03/28 15:38:10;;;;;;;;;;;;;;;25.02;23.69;97749.50;12676626;23;19975;-81
2022/03/28 15:43:33;;;;;;;;;;;;;;;24.80;23.40;97744.97;12697652;23;19976;-84
2022/03/28 15:48:54;;;;;;;;;;;;;;;24.22;23.98;97745.63;12659542;23;19955;-87
2022/03/28 15:54:15;;;;;;;;;;;;;;;23.89;24.13;97740.88;12640523;23;19921;-83
2022/03/28 15:59:36;;;;;;;;;;;;;;;23.67;24.53;97729.84;12680149;23;20217;-79
2022/03/28 16:04:57;;;;;;;;;;;;;;;23.49;24.44;97740.94;12646073;23;19996;-83
2022/03/28 16:10:17;;;;;;;;;;;;;;;23.39;24.61;97724.38;12639640;23;19988;-87
2022/03/28 16:15:38;;;;;;;;;;;;;;;23.18;24.70;97722.59;12639654;23;19921;-84
2022/03/28 16:20:59;;;;;;;;;;;;;;;22.90;24.64;97723.53;12679610;23;19955;-87
2022/03/28 16:26:20;;;;;;;;;;;;;;;22.65;24.93;97710.22;12639932;23;19921;-83
2022/03/28 16:31:41;;;;;;;;;;;;;;;22.42;25.24;97717.59;12640256;23;19921;-82
2022/03/28 16:37:01;;;;;;;;;;;;;;;22.19;25.58;97710.69;12639897;23;19956;-77
2022/03/28 16:42:22;;;;;;;;;;;;;;;22.02;26.08;97706.78;12701042;23;20021;-83
2022/03/28 16:47:49;;;;;;;;;;;;;;;21.93;26.16;97705.88;12641443;23;19921;-79
2022/03/28 16:53:09;;;;;;;;;;;;;;;21.79;26.06;97708.38;12658686;23;19928;-82
2022/03/28 16:58:35;;;;;;;;;;;;;;;21.59;26.45;97699.38;12660299;23;19921;-78
2022/03/28 17:03:58;;;;;;;;;;;;;;;21.40;26.61;97696.09;12649708;23;19921;-88
2022/03/28 17:09:18;;;;;;;;;;;;;;;21.21;26.67;97694.19;12639629;23;19925;-89
2022/03/28 17:14:39;;;;;;;;;;;;;;;21.07;27.30;97688.16;12659209;23;19921;-88
2022/03/28 17:20:00;;;;;;;;;;;;;;;20.92;27.30;97687.06;12619116;23;20413;-81
2022/03/28 17:25:22;;;;;;;;;;;;;;;20.82;27.95;97678.31;12658766;23;20316;-85
2022/03/28 17:30:42;;;;;;;;;;;;;;;20.72;27.98;97675.91;12663688;23;19924;-82
2022/03/28 17:36:03;;;;;;;;;;;;;;;20.58;28.14;97681.94;12638665;23;19976;-80
2022/03/28 17:41:24;;;;;;;;;;;;;;;20.43;28.43;97670.88;12658964;23;19928;-85
2022/03/28 17:46:45;;;;;;;;;;;;;;;20.24;28.53;97670.31;12658649;23;19921;-85
2022/03/28 17:52:06;;;;;;;;;;;;;;;20.15;28.70;97662.25;12638993;23;19971;-88
2022/03/28 17:57:26;;;;;;;;;;;;;;;20.11;28.65;97667.81;12613296;23;19921;-88
2022/03/28 18:02:47;;;;;;;;;;;;;;;19.99;28.98;97663.25;12653211;23;20252;-85
2022/03/28 18:08:08;;;;;;;;;;;;;;;19.77;29.37;97662.56;12638258;23;19925;-84
2022/03/28 18:13:29;;;;;;;;;;;;;;;19.62;29.21;97661.44;12658316;23;19925;-81
2022/03/28 18:18:50;;;;;;;;;;;;;;;19.37;29.88;97670.50;12678069;23;19928;-82
2022/03/28 18:24:11;;;;;;;;;;;;;;;19.14;30.34;97666.25;12658349;23;19928;-87
2022/03/28 18:29:32;;;;;;;;;;;;;;;18.97;30.80;97670.63;12627424;23;19927;-87
2022/03/28 18:34:53;;;;;;;;;;;;;;;18.76;30.49;97663.56;12636578;23;20000;-83
2022/03/28 18:40:14;;;;;;;;;;;;;;;18.65;30.95;97666.72;12616956;23;19921;-84
2022/03/28 18:45:37;;;;;;;;;;;;;;;18.50;31.18;97669.00;12657925;23;20280;-86
2022/03/28 18:50:59;;;;;;;;;;;;;;;18.38;31.42;97670.69;12637702;23;19944;-85
2022/03/28 18:56:19;;;;;;;;;;;;;;;18.30;31.43;97676.75;12676826;23;19921;-85
2022/03/28 19:01:40;;;;;;;;;;;;;;;18.20;31.96;97676.41;12636488;23;20351;-87
2022/03/28 19:07:01;;;;;;;;;;;;;;;18.16;31.85;97681.91;12656466;23;19921;-87
2022/03/28 19:12:22;;;;;;;;;;;;;;;18.16;31.72;97690.38;12636858;23;20317;-85
2022/03/28 19:17:42;;;;;;;;;;;;;;;18.15;32.02;97683.28;12631744;23;20300;-84
2022/03/28 19:23:03;;;;;;;;;;;;;;;18.21;32.18;97680.66;12635949;23;19925;-85
2022/03/28 19:28:24;;;;;;;;;;;;;;;18.25;31.95;97675.91;12650600;23;19944;-87
2022/03/28 19:33:47;;;;;;;;;;;;;;;18.21;32.36;97677.84;12655874;23;19921;-85
2022/03/28 19:39:09;;;;;;;;;;;;;;;18.11;32.46;97677.47;12656964;23;20236;-85
2022/03/28 19:44:29;;;;;;;;;;;;;;;17.99;32.58;97684.13;12636042;23;19921;-85
2022/03/28 19:49:51;;;;;;;;;;;;;;;17.83;32.90;97677.84;12636918;23;19921;-84
2022/03/28 19:55:13;;;;;;;;;;;;;;;17.73;33.13;97680.28;12656584;23;19920;-83
2022/03/28 20:00:34;;;;;;;;;;;;;;;17.61;33.37;97662.88;12655987;23;20287;-84
2022/03/28 20:05:55;;;;;;;;;;;;;;;17.48;33.62;97652.50;12638347;23;19945;-85
2022/03/28 20:11:17;;;;;;;;;;;;;;;17.36;33.68;97636.50;12656632;23;19925;-87
2022/03/28 20:16:38;;;;;;;;;;;;;;;17.18;34.13;97635.81;12656596;23;19920;-84
2022/03/28 20:22:00;;;;;;;;;;;;;;;17.01;34.33;97642.16;12655918;23;19971;-84
2022/03/28 20:27:22;;;;;;;;;;;;;;;16.78;34.87;97626.41;12634353;23;19921;-85
2022/03/28 20:32:43;;;;;;;;;;;;;;;16.59;35.36;97619.25;12636422;23;19921;-84
2022/03/28 20:38:03;;;;;;;;;;;;;;;16.43;35.41;97605.22;12639008;23;19932;-85
2022/03/28 20:43:24;;;;;;;;;;;;;;;16.27;35.71;97602.44;12659951;23;19924;-84
2022/03/28 20:48:45;;;;;;;;;;;;;;;16.06;35.97;97600.13;12657011;23;19921;-84
2022/03/28 20:54:06;;;;;;;;;;;;;;;15.88;36.16;97593.69;12656169;23;19928;-82
2022/03/28 20:59:27;;;;;;;;;;;;;;;15.73;36.80;97595.16;12656982;23;20244;-80
2022/03/28 21:04:48;;;;;;;;;;;;;;;15.63;36.74;97572.91;12663686;23;19921;-81
2022/03/28 21:10:12;;;;;;;;;;;;;;;15.57;37.26;97574.69;12677534;23;19921;-80
2022/03/28 21:15:34;;;;;;;;;;;;;;;15.45;37.47;97564.34;12656569;23;19920;-80
2022/03/28 21:20:55;;;;;;;;;;;;;;;15.35;37.64;97563.88;12677054;23;20351;-79
2022/03/28 21:26:35;;;;;;;;;;;;;;;15.25;37.98;97562.66;12728080;23;20391;-80
2022/03/28 21:31:56;;;;;;;;;;;;;;;15.18;37.93;97553.25;12749678;23;20547;-79
2022/03/28 21:37:18;;;;;;;;;;;;;;;15.13;38.15;97543.88;12773858;23;19921;-79
2022/03/28 21:42:39;;;;;;;;;;;;;;;15.10;38.88;97542.34;12793430;23;19927;-78
2022/03/28 21:48:00;;;;;;;;;;;;;;;15.01;39.31;97540.50;12804258;23;19927;-78
2022/03/28 21:53:34;;;;;;;;;;;;;;;14.93;39.08;97533.78;12763069;23;19920;-79
2022/03/28 21:58:55;;;;;;;;;;;;;;;14.86;39.89;97552.41;12794223;23;20358;-77
2022/03/28 22:04:18;;;;;;;;;;;;;;;14.83;40.33;97542.44;12754636;23;19936;-81
2022/03/28 22:09:38;;;;;;;;;;;;;;;14.64;40.10;97540.13;12736586;23;19949;-79
2022/03/28 22:14:59;;;;;;;;;;;;;;;14.53;40.41;97536.09;12762349;23;19909;-78
2022/03/28 22:20:20;;;;;;;;;;;;;;;14.49;40.55;97539.44;12819698;23;19905;-80
2022/03/28 22:25:41;;;;;;;;;;;;;;;14.53;40.68;97533.28;12817987;23;20006;-80
2022/03/28 22:31:02;;;;;;;;;;;;;;;14.48;41.04;97526.75;12838832;23;19951;-81
2022/03/28 22:36:22;;;;;;;;;;;;;;;14.45;41.01;97516.78;12838565;23;19947;-80
2022/03/28 22:41:43;;;;;;;;;;;;;;;14.42;40.94;97512.38;12880380;23;19924;-80
2022/03/28 22:59:12;;;;;;;;;;;;;;;14.33;39.87;97507.72;12850961;23;19920;-80
2022/03/28 23:04:32;;;;;;;;;;;;;;;14.35;39.79;97499.41;12838097;23;19904;-81
2022/03/28 23:09:53;;;;;;;;;;;;;;;14.35;39.35;97490.25;12838290;23;19957;-82
2022/03/28 23:15:14;;;;;;;;;;;;;;;14.35;39.22;97493.78;12858487;23;19923;-80
2022/03/28 23:20:35;;;;;;;;;;;;;;;14.29;38.94;97488.63;12837853;23;19920;-81
2022/03/28 23:25:55;;;;;;;;;;;;;;;14.27;38.77;97477.25;12817301;23;19924;-81
2022/03/28 23:31:16;;;;;;;;;;;;;;;14.22;38.76;97461.59;12837790;23;19948;-82
2022/03/28 23:36:37;;;;;;;;;;;;;;;14.19;38.60;97459.31;12837631;23;19927;-82
2022/03/28 23:41:57;;;;;;;;;;;;;;;14.11;38.17;97447.69;12837440;23;19952;-81
2022/03/28 23:47:18;;;;;;;;;;;;;;;14.09;38.09;97441.97;12837632;23;19956;-81
2022/03/28 23:52:39;;;;;;;;;;;;;;;14.07;38.05;97442.59;12837571;23;19977;-81
2022/03/28 23:58:01;;;;;;;;;;;;;;;14.00;37.81;97435.25;12825011;23;19911;-81
